Time;durP1;ratioP1;P1;durP2;ratioP2;P2;SDS_P1;SDS_P2;PMS_P1;PMS_P2;Temp;Humidity;BMP_temperature;BMP_pressure;BME280_temperature;BME280_humidity;BME280_pressure;Samples;Min_cycle;Max_cycle;Signal;HPM_P1;HPM_P2
2022/04/01 03:02:53;;;;;;;3.67;3.37;;;7.20;86.00;;;;;;5014639;23;20576;-70
2022/04/01 03:05:20;;;;;;;3.63;3.43;;;7.30;85.20;;;;;;4955708;28;20443;-70
2022/04/01 03:07:47;;;;;;;3.60;3.40;;;7.20;84.90;;;;;;4955469;28;20450;-70
2022/04/01 03:10:13;;;;;;;3.23;3.13;;;7.10;84.90;;;;;;4955410;28;20450;-70
2022/04/01 03:12:40;;;;;;;3.10;3.00;;;7.00;85.10;;;;;;4955271;28;20471;-70
2022/04/01 03:15:07;;;;;;;3.20;3.10;;;6.90;85.80;;;;;;4956318;28;21073;-70
2022/04/01 03:17:34;;;;;;;3.20;3.10;;;7.10;85.60;;;;;;4955260;28;20447;-70
2022/04/01 03:20:02;;;;;;;3.27;3.17;;;6.90;85.30;;;;;;4955329;28;20502;-70
2022/04/01 03:22:30;;;;;;;2.83;2.73;;;6.80;86.00;;;;;;4955565;28;20482;-70
2022/04/01 03:24:56;;;;;;;2.93;2.83;;;6.90;85.80;;;;;;4955580;28;20451;-70
2022/04/01 03:27:23;;;;;;;2.60;2.50;;;6.80;85.90;;;;;;4955474;28;20455;-70
2022/04/01 03:29:49;;;;;;;2.80;2.70;;;6.80;85.80;;;;;;4955682;28;20457;-70
2022/04/01 03:32:16;;;;;;;2.23;2.13;;;6.80;85.50;;;;;;4955060;28;20838;-70
2022/04/01 03:34:43;;;;;;;2.03;1.93;;;6.70;85.40;;;;;;4955026;28;20478;-70
2022/04/01 03:37:11;;;;;;;2.40;2.30;;;6.70;85.20;;;;;;4955096;28;20566;-69
2022/04/01 03:39:38;;;;;;;2.20;2.10;;;6.60;85.10;;;;;;4954956;28;20455;-70
2022/04/01 03:42:07;;;;;;;2.27;2.17;;;6.60;85.60;;;;;;4954943;28;20474;-70
2022/04/01 03:44:36;;;;;;;2.33;2.23;;;6.60;85.60;;;;;;4954968;28;20535;-70
2022/04/01 03:47:05;;;;;;;2.37;2.27;;;6.70;85.60;;;;;;4955589;28;20450;-70
2022/04/01 03:49:33;;;;;;;1.80;1.70;;;6.70;85.30;;;;;;4955045;28;20454;-70
2022/04/01 03:52:01;;;;;;;1.80;1.70;;;6.80;84.90;;;;;;4954977;28;20553;-70
2022/04/01 03:54:32;;;;;;;1.83;1.73;;;6.80;84.30;;;;;;4954889;28;20902;-70
2022/04/01 03:57:00;;;;;;;1.97;1.87;;;6.70;84.10;;;;;;4955149;28;20819;-70
2022/04/01 03:59:40;;;;;;;2.07;1.97;;;6.70;84.40;;;;;;4954650;28;20947;-70
2022/04/01 04:02:09;;;;;;;1.80;1.70;;;6.80;84.40;;;;;;4954597;28;20486;-70
2022/04/01 04:04:37;;;;;;;1.80;1.70;;;6.70;84.20;;;;;;4954830;28;20538;-71
2022/04/01 04:07:06;;;;;;;1.63;1.53;;;6.80;84.40;;;;;;4954571;28;21040;-71
2022/04/01 04:09:35;;;;;;;1.50;1.40;;;6.90;84.00;;;;;;4954753;28;20451;-70
2022/04/01 04:12:03;;;;;;;1.40;1.30;;;6.80;83.40;;;;;;4954785;28;20471;-71
2022/04/01 04:14:30;;;;;;;1.40;1.30;;;6.80;83.60;;;;;;4954427;28;20998;-71
2022/04/01 04:16:59;;;;;;;1.23;1.13;;;6.80;83.10;;;;;;4954509;28;20875;-70
2022/04/01 04:19:35;;;;;;;1.63;1.53;;;6.80;83.40;;;;;;4954505;28;20518;-70
2022/04/01 04:22:10;;;;;;;1.30;1.20;;;6.70;83.00;;;;;;4954888;28;20522;-71
2022/04/01 04:24:43;;;;;;;1.50;1.40;;;6.70;82.70;;;;;;4954803;28;20439;-70
2022/04/01 04:27:11;;;;;;;1.40;1.30;;;6.70;82.80;;;;;;4954963;28;20490;-70
2022/04/01 04:29:46;;;;;;;1.40;1.30;;;6.80;83.10;;;;;;4954689;28;20485;-69
2022/04/01 04:32:23;;;;;;;1.50;1.40;;;6.80;82.90;;;;;;4954787;28;20477;-70
2022/04/01 04:34:51;;;;;;;1.47;1.37;;;6.70;83.00;;;;;;4954684;28;20471;-70
2022/04/01 04:37:25;;;;;;;1.30;1.20;;;6.70;82.80;;;;;;4954377;28;20868;-70
2022/04/01 04:39:54;;;;;;;1.73;1.63;;;6.80;82.80;;;;;;4954733;28;20434;-70
2022/04/01 04:42:22;;;;;;;1.20;1.10;;;6.80;82.60;;;;;;4954652;28;20522;-70
2022/04/01 04:44:50;;;;;;;1.60;1.50;;;6.90;82.40;;;;;;4954576;28;20474;-70
2022/04/01 04:47:19;;;;;;;1.23;1.13;;;6.90;82.10;;;;;;4955235;28;20446;-70
2022/04/01 04:49:49;;;;;;;1.20;1.10;;;6.80;81.80;;;;;;4954487;28;20462;-70
2022/04/01 04:52:18;;;;;;;1.20;1.10;;;6.80;81.80;;;;;;4954425;28;20505;-70
2022/04/01 04:54:45;;;;;;;1.40;1.30;;;6.60;82.00;;;;;;4957816;28;20491;-70
2022/04/01 04:57:15;;;;;;;1.53;1.43;;;6.60;82.60;;;;;;4958231;28;20506;-70
2022/04/01 04:59:43;;;;;;;1.30;1.20;;;6.70;82.30;;;;;;4958127;28;20505;-70
2022/04/01 05:02:16;;;;;;;1.50;1.40;;;6.70;82.10;;;;;;4958007;28;20835;-71
2022/04/01 05:04:57;;;;;;;1.40;1.30;;;6.60;81.60;;;;;;4958100;28;20782;-70
2022/04/01 05:07:34;;;;;;;1.20;1.10;;;6.50;81.40;;;;;;4957967;28;20435;-70
2022/04/01 05:10:07;;;;;;;1.30;1.20;;;6.40;81.90;;;;;;4957940;28;20445;-71
2022/04/01 05:12:42;;;;;;;1.20;1.10;;;6.40;82.00;;;;;;4958131;28;20478;-70
2022/04/01 05:15:11;;;;;;;1.30;1.20;;;6.30;82.10;;;;;;4957466;28;20857;-70
2022/04/01 05:17:45;;;;;;;1.33;1.23;;;6.30;82.10;;;;;;4957734;28;20866;-70
2022/04/01 05:20:16;;;;;;;1.20;1.10;;;6.40;81.90;;;;;;4957638;28;20439;-70
2022/04/01 05:22:48;;;;;;;1.33;1.23;;;6.40;82.30;;;;;;4958196;28;20557;-71
2022/04/01 05:25:20;;;;;;;1.37;1.27;;;6.40;82.00;;;;;;4958150;28;20432;-71
2022/04/01 05:27:52;;;;;;;1.40;1.30;;;6.40;81.50;;;;;;4957834;28;20561;-70
2022/04/01 05:30:20;;;;;;;1.27;1.17;;;6.40;81.60;;;;;;4957647;28;20471;-70
2022/04/01 05:33:01;;;;;;;1.07;1.00;;;6.40;81.40;;;;;;4957301;28;20477;-70
2022/04/01 05:35:29;;;;;;;1.20;1.10;;;6.50;81.30;;;;;;4957302;28;20471;-70
2022/04/01 05:37:58;;;;;;;1.20;1.10;;;6.50;80.90;;;;;;4957264;28;20525;-70
2022/04/01 05:40:25;;;;;;;1.30;1.20;;;6.50;80.80;;;;;;4957063;28;20538;-70
2022/04/01 05:42:53;;;;;;;1.20;1.10;;;6.60;80.60;;;;;;4957451;28;20853;-70
2022/04/01 05:45:20;;;;;;;1.30;1.20;;;6.50;80.40;;;;;;4957222;28;20511;-71
2022/04/01 05:47:48;;;;;;;1.07;0.97;;;6.50;80.60;;;;;;4957112;28;20459;-70
2022/04/01 05:50:19;;;;;;;1.17;1.07;;;6.60;80.60;;;;;;4957120;28;20502;-70
2022/04/01 05:52:47;;;;;;;1.17;1.07;;;6.60;80.20;;;;;;4957077;28;20557;-70
2022/04/01 05:55:14;;;;;;;1.20;1.10;;;6.60;79.80;;;;;;4957060;28;20483;-70
2022/04/01 05:57:41;;;;;;;1.30;1.20;;;6.60;79.80;;;;;;4957427;28;20458;-70
2022/04/01 06:00:12;;;;;;;1.43;1.33;;;6.50;80.10;;;;;;4957224;28;20459;-69
2022/04/01 06:02:58;;;;;;;1.20;1.10;;;6.50;80.20;;;;;;4956873;28;20530;-71
2022/04/01 06:05:29;;;;;;;1.20;1.10;;;6.40;80.50;;;;;;4955973;28;20522;-70
2022/04/01 06:08:03;;;;;;;1.40;1.30;;;6.40;80.40;;;;;;4956940;28;20439;-70
2022/04/01 06:10:42;;;;;;;1.40;1.30;;;6.30;80.50;;;;;;4956920;28;20427;-70
2022/04/01 06:13:20;;;;;;;1.40;1.30;;;6.30;81.00;;;;;;4956668;28;20458;-70
2022/04/01 06:16:03;;;;;;;1.40;1.30;;;6.40;80.70;;;;;;4956566;28;20874;-71
2022/04/01 06:18:41;;;;;;;1.70;1.60;;;6.40;80.50;;;;;;4956663;28;20435;-70
2022/04/01 06:21:14;;;;;;;1.40;1.30;;;6.40;81.00;;;;;;4957046;28;20474;-70
2022/04/01 06:23:53;;;;;;;1.37;1.27;;;6.50;80.40;;;;;;4957039;28;20436;-71
2022/04/01 06:26:19;;;;;;;1.47;1.37;;;6.30;80.20;;;;;;4956544;28;20911;-69
2022/04/01 06:28:56;;;;;;;1.37;1.27;;;6.30;80.50;;;;;;4957102;28;20451;-70
2022/04/01 06:31:27;;;;;;;1.40;1.30;;;6.30;80.80;;;;;;4956706;28;20470;-70
2022/04/01 06:34:03;;;;;;;1.30;1.20;;;6.30;80.60;;;;;;4956587;28;20486;-71
2022/04/01 06:36:39;;;;;;;1.50;1.40;;;6.30;80.60;;;;;;4956465;28;21060;-70
2022/04/01 06:39:08;;;;;;;1.63;1.53;;;6.20;80.30;;;;;;4956413;28;20467;-70
2022/04/01 06:41:42;;;;;;;1.50;1.40;;;6.10;80.20;;;;;;4956098;28;20526;-71
2022/04/01 06:44:09;;;;;;;1.47;1.37;;;6.10;80.60;;;;;;4956250;28;20521;-70
2022/04/01 06:46:37;;;;;;;1.70;1.60;;;6.10;81.00;;;;;;4956460;28;20454;-70
2022/04/01 06:49:08;;;;;;;1.90;1.80;;;6.30;80.50;;;;;;4956300;28;20454;-71
2022/04/01 06:51:36;;;;;;;1.80;1.70;;;6.30;80.10;;;;;;4956331;28;20482;-70
2022/04/01 06:54:02;;;;;;;1.70;1.60;;;6.20;80.10;;;;;;4956188;28;20451;-71
2022/04/01 06:56:29;;;;;;;1.77;1.67;;;6.20;80.20;;;;;;4956272;28;20482;-71
2022/04/01 06:58:56;;;;;;;1.80;1.70;;;6.30;80.20;;;;;;4956311;28;20514;-71
2022/04/01 07:01:23;;;;;;;1.77;1.67;;;6.30;80.40;;;;;;4956159;28;20554;-71
2022/04/01 07:03:51;;;;;;;1.50;1.40;;;6.20;80.10;;;;;;4956055;28;20447;-71
2022/04/01 07:06:17;;;;;;;1.60;1.50;;;6.20;80.40;;;;;;4955987;28;20513;-71
2022/04/01 07:08:44;;;;;;;1.80;1.70;;;6.10;80.50;;;;;;4955636;28;20443;-71
2022/04/01 07:11:11;;;;;;;1.87;1.77;;;6.10;80.60;;;;;;4955537;28;21053;-71
2022/04/01 07:13:38;;;;;;;1.50;1.40;;;6.10;80.50;;;;;;4955513;28;20911;-73
2022/04/01 07:16:06;;;;;;;1.50;1.40;;;6.10;80.60;;;;;;4955226;28;20479;-71
2022/04/01 07:18:33;;;;;;;1.40;1.30;;;6.20;80.80;;;;;;4955662;28;20439;-71
2022/04/01 07:21:01;;;;;;;1.53;1.43;;;6.20;80.50;;;;;;4955624;28;20474;-71
2022/04/01 07:23:28;;;;;;;1.47;1.37;;;6.30;80.70;;;;;;4955629;28;20466;-72
2022/04/01 07:25:54;;;;;;;1.70;1.60;;;6.30;80.30;;;;;;4955528;28;20446;-71
2022/04/01 07:28:21;;;;;;;1.60;1.50;;;6.20;80.40;;;;;;4955446;28;20451;-71
2022/04/01 07:30:50;;;;;;;1.73;1.63;;;6.30;80.40;;;;;;4955426;28;20470;-70
2022/04/01 07:33:17;;;;;;;1.47;1.37;;;6.30;80.50;;;;;;4956417;28;20550;-71
2022/04/01 07:35:47;;;;;;;1.37;1.27;;;6.20;80.70;;;;;;4959420;28;20482;-71
2022/04/01 07:38:15;;;;;;;1.60;1.50;;;6.00;81.20;;;;;;4958850;28;20843;-72
2022/04/01 07:40:42;;;;;;;1.83;1.73;;;6.10;81.00;;;;;;4957925;28;20455;-71
2022/04/01 07:43:09;;;;;;;1.40;1.30;;;5.90;81.30;;;;;;4958184;28;20451;-72
2022/04/01 07:45:37;;;;;;;1.50;1.40;;;6.00;81.70;;;;;;4958355;29;20439;-71
2022/04/01 07:48:04;;;;;;;1.30;1.20;;;6.00;81.40;;;;;;4958867;28;20458;-71
2022/04/01 07:50:31;;;;;;;1.63;1.20;;;5.90;81.20;;;;;;4958374;28;20458;-71
2022/04/01 07:52:58;;;;;;;1.20;1.10;;;5.90;81.80;;;;;;4956733;28;20549;-69
2022/04/01 07:55:26;;;;;;;1.50;1.40;;;5.90;81.80;;;;;;4955174;28;20451;-71
2022/04/01 07:57:53;;;;;;;1.40;1.30;;;5.90;81.90;;;;;;4954931;28;20454;-70
2022/04/01 08:00:20;;;;;;;1.57;1.47;;;5.90;82.30;;;;;;4955090;28;20455;-71
2022/04/01 08:02:47;;;;;;;1.50;1.40;;;6.00;82.00;;;;;;4955331;28;20486;-71
2022/04/01 08:05:14;;;;;;;1.50;1.40;;;6.00;82.00;;;;;;4955776;28;20538;-70
2022/04/01 08:07:41;;;;;;;1.20;1.10;;;6.00;81.70;;;;;;4955016;28;21001;-70
2022/04/01 08:10:08;;;;;;;1.43;1.33;;;5.90;82.00;;;;;;4955136;28;20455;-70
2022/04/01 08:12:36;;;;;;;1.63;1.53;;;5.80;82.50;;;;;;4955017;28;20475;-70
2022/04/01 08:15:03;;;;;;;1.53;1.43;;;5.90;82.20;;;;;;4954872;28;20450;-70
2022/04/01 08:17:30;;;;;;;1.30;1.20;;;5.90;82.20;;;;;;4954960;28;20482;-69
2022/04/01 08:19:57;;;;;;;1.50;1.40;;;5.90;82.20;;;;;;4955150;28;20458;-70
2022/04/01 08:22:24;;;;;;;1.37;1.27;;;5.90;82.30;;;;;;4954859;28;20466;-69
2022/04/01 08:24:50;;;;;;;1.57;1.47;;;6.00;82.20;;;;;;4954623;28;20942;-70
2022/04/01 08:27:17;;;;;;;1.60;1.50;;;5.90;82.20;;;;;;4955238;28;20447;-70
2022/04/01 08:29:45;;;;;;;1.50;1.40;;;6.00;82.20;;;;;;4958267;28;20450;-70
2022/04/01 08:32:12;;;;;;;1.50;1.40;;;6.00;82.10;;;;;;4958642;28;20558;-70
2022/04/01 08:34:38;;;;;;;1.73;1.63;;;5.90;82.10;;;;;;4958906;28;20478;-70
2022/04/01 08:37:06;;;;;;;1.60;1.50;;;5.90;82.30;;;;;;4958602;28;20482;-70
2022/04/01 08:39:33;;;;;;;1.30;1.20;;;5.90;82.60;;;;;;4958637;28;20823;-70
2022/04/01 08:42:00;;;;;;;1.37;1.27;;;6.00;82.20;;;;;;4958372;28;20471;-70
2022/04/01 08:44:27;;;;;;;1.50;1.40;;;6.10;82.00;;;;;;4958493;28;20455;-70
2022/04/01 08:46:55;;;;;;;1.60;1.50;;;6.10;81.90;;;;;;4958345;28;20455;-70
2022/04/01 08:49:22;;;;;;;1.60;1.50;;;6.20;82.00;;;;;;4958464;28;20451;-72
2022/04/01 08:51:49;;;;;;;1.80;1.70;;;6.30;81.70;;;;;;4958243;28;20483;-70
2022/04/01 08:54:16;;;;;;;1.70;1.60;;;6.30;81.40;;;;;;4958725;28;20458;-72
2022/04/01 08:56:42;;;;;;;1.30;1.20;;;6.30;81.30;;;;;;4958203;28;20530;-70
2022/04/01 08:59:09;;;;;;;1.40;1.30;;;6.40;81.10;;;;;;4958177;28;20458;-70
2022/04/01 09:01:41;;;;;;;1.47;1.37;;;6.40;81.00;;;;;;4957991;28;20550;-71
2022/04/01 09:04:20;;;;;;;1.30;1.20;;;6.20;80.70;;;;;;4958095;28;20534;-71
2022/04/01 09:06:46;;;;;;;1.63;1.53;;;6.10;81.30;;;;;;4958162;28;20501;-70
2022/04/01 09:09:28;;;;;;;1.40;1.30;;;6.00;81.90;;;;;;4958036;28;20509;-71
2022/04/01 09:12:11;;;;;;;1.50;1.40;;;6.00;82.20;;;;;;4958208;28;20481;-71
2022/04/01 09:14:38;;;;;;;1.27;1.17;;;6.10;81.90;;;;;;5068236;23;20490;-74
2022/04/01 09:17:06;;;;;;;1.40;1.30;;;6.00;81.90;;;;;;4957984;28;20482;-73
2022/04/01 09:19:36;;;;;;;1.37;1.27;;;6.00;82.10;;;;;;4958101;28;20514;-74
2022/04/01 09:22:16;;;;;;;1.50;1.40;;;5.90;82.40;;;;;;4957944;29;20454;-74
2022/04/01 09:24:54;;;;;;;1.50;1.40;;;5.90;82.00;;;;;;4957882;28;20506;-74
2022/04/01 09:27:53;;;;;;;1.20;1.10;;;6.00;82.30;;;;;;4957853;28;20451;-74
2022/04/01 09:30:22;;;;;;;1.40;1.30;;;6.00;82.20;;;;;;4957583;28;20791;-73
2022/04/01 09:32:51;;;;;;;1.33;1.23;;;5.90;82.10;;;;;;4957801;28;20453;-73
2022/04/01 09:35:22;;;;;;;1.70;1.60;;;5.90;82.00;;;;;;4957744;28;20471;-73
2022/04/01 09:37:50;;;;;;;1.60;1.50;;;5.90;81.50;;;;;;4957665;28;20554;-73
2022/04/01 09:40:20;;;;;;;1.60;1.50;;;6.00;81.90;;;;;;4957344;28;20526;-74
2022/04/01 09:42:48;;;;;;;1.43;1.33;;;6.00;81.70;;;;;;4957759;28;20466;-72
2022/04/01 09:45:18;;;;;;;1.10;1.10;;;5.80;81.80;;;;;;4958042;28;20494;-74
2022/04/01 09:47:45;;;;;;;1.30;1.20;;;5.90;82.20;;;;;;4957862;28;20447;-73
2022/04/01 09:50:17;;;;;;;1.07;1.03;;;6.00;82.10;;;;;;4957593;28;20455;-73
2022/04/01 09:52:46;;;;;;;1.10;1.00;;;6.10;81.70;;;;;;4957467;28;20455;-73
2022/04/01 09:55:13;;;;;;;1.30;1.20;;;6.10;81.10;;;;;;4957495;28;20474;-72
2022/04/01 09:57:40;;;;;;;1.40;1.30;;;6.10;81.50;;;;;;4957564;28;20487;-73
2022/04/01 10:00:09;;;;;;;1.03;0.93;;;6.00;81.10;;;;;;4957408;28;20516;-73
2022/04/01 10:02:37;;;;;;;1.00;1.00;;;6.00;81.70;;;;;;4957389;28;20455;-73
2022/04/01 10:05:05;;;;;;;1.30;1.20;;;6.00;81.50;;;;;;4957293;28;20526;-73
2022/04/01 10:07:33;;;;;;;1.20;1.10;;;6.10;81.50;;;;;;4956864;28;20549;-73
2022/04/01 10:10:04;;;;;;;1.30;1.20;;;6.10;81.20;;;;;;4957188;28;20455;-73
2022/04/01 10:12:37;;;;;;;0.93;0.90;;;6.10;81.70;;;;;;4956838;28;20887;-72
2022/04/01 10:15:07;;;;;;;1.03;0.93;;;6.10;81.60;;;;;;4956875;28;20483;-73
2022/04/01 10:17:40;;;;;;;1.23;1.13;;;6.20;81.80;;;;;;4956982;28;20486;-73
2022/04/01 10:20:08;;;;;;;0.90;0.90;;;6.30;81.50;;;;;;4957029;28;20435;-73
2022/04/01 10:22:36;;;;;;;1.50;1.40;;;6.30;81.00;;;;;;4957817;28;20501;-73
2022/04/01 10:25:12;;;;;;;1.13;1.03;;;6.20;80.80;;;;;;4956613;28;20506;-73
2022/04/01 10:27:41;;;;;;;2.30;1.30;;;6.20;81.60;;;;;;4956872;28;20486;-73
2022/04/01 10:30:11;;;;;;;1.17;1.07;;;6.30;81.60;;;;;;4956870;28;20510;-73
2022/04/01 10:32:42;;;;;;;1.00;1.00;;;6.30;81.30;;;;;;4956898;28;20447;-74
2022/04/01 10:35:20;;;;;;;1.07;0.97;;;6.30;81.60;;;;;;4956694;28;20479;-74
2022/04/01 10:37:47;;;;;;;0.90;0.90;;;6.30;81.20;;;;;;4957590;28;20471;-74
2022/04/01 10:40:17;;;;;;;1.00;0.90;;;6.30;80.70;;;;;;4956711;28;20458;-74
2022/04/01 10:42:45;;;;;;;1.10;1.00;;;6.20;81.10;;;;;;4956522;28;20435;-74
2022/04/01 10:45:24;;;;;;;1.00;1.00;;;6.30;81.60;;;;;;4956549;28;20513;-73
2022/04/01 10:53:45;;;;;;;1.47;1.37;;;6.20;80.60;;;;;;4956342;28;20918;-73
2022/04/01 10:56:43;;;;;;;0.90;0.90;;;6.20;81.10;;;;;;4956355;28;20447;-73
2022/04/01 10:59:13;;;;;;;0.90;0.90;;;6.30;81.30;;;;;;4897016;29;20872;-73
2022/04/01 11:01:43;;;;;;;0.90;0.90;;;6.20;81.20;;;;;;4943882;28;20963;-73
2022/04/01 11:04:28;;;;;;;1.10;1.00;;;6.30;81.00;;;;;;4957358;28;20849;-74
2022/04/01 11:06:57;;;;;;;1.00;1.00;;;6.30;80.40;;;;;;4956749;28;20498;-74
2022/04/01 11:09:35;;;;;;;0.80;0.70;;;6.30;80.20;;;;;;4956554;28;20454;-74
2022/04/01 11:12:33;;;;;;;0.90;0.90;;;6.30;80.50;;;;;;4956515;28;20485;-74
2022/04/01 11:15:20;;;;;;;0.90;0.90;;;6.40;80.50;;;;;;4955995;28;20994;-74
2022/04/01 11:18:17;;;;;;;0.80;0.80;;;6.30;80.50;;;;;;4957262;28;20482;-72
2022/04/01 11:20:56;;;;;;;0.80;0.80;;;6.30;80.40;;;;;;4957326;28;20458;-73
2022/04/01 11:23:23;;;;;;;1.00;1.00;;;6.20;80.20;;;;;;4956893;28;20439;-74
2022/04/01 11:25:57;;;;;;;0.80;0.80;;;6.10;79.90;;;;;;4956306;28;20459;-74
2022/04/01 11:28:27;;;;;;;0.80;0.67;;;6.10;80.00;;;;;;4957013;28;20439;-75
2022/04/01 11:31:11;;;;;;;0.80;0.77;;;6.00;80.30;;;;;;4956991;28;20435;-74
2022/04/01 11:33:39;;;;;;;0.80;0.60;;;5.90;80.10;;;;;;4956158;28;20442;-74
2022/04/01 11:36:07;;;;;;;0.80;0.70;;;5.90;80.50;;;;;;4955971;28;20461;-73
2022/04/01 11:38:34;;;;;;;0.80;0.60;;;5.90;80.40;;;;;;4955922;28;20542;-74
2022/04/01 11:41:06;;;;;;;0.83;0.77;;;5.80;81.00;;;;;;4956917;28;20451;-73
2022/04/01 11:43:35;;;;;;;0.83;0.70;;;5.80;80.90;;;;;;4956594;28;20915;-74
2022/04/01 11:46:06;;;;;;;0.80;0.60;;;5.70;81.20;;;;;;4956433;28;20466;-74
2022/04/01 11:48:35;;;;;;;0.80;0.60;;;5.80;81.90;;;;;;4958216;28;20446;-73
2022/04/01 11:51:03;;;;;;;0.80;0.67;;;5.80;81.50;;;;;;4957770;28;20852;-74
2022/04/01 11:53:32;;;;;;;0.80;0.60;;;5.80;81.80;;;;;;4956941;28;20462;-74
2022/04/01 11:56:00;;;;;;;0.80;0.70;;;5.90;81.80;;;;;;4956099;28;20462;-74
2022/04/01 11:58:34;;;;;;;0.90;0.80;;;5.90;81.20;;;;;;4955896;28;21010;-73
2022/04/01 12:01:02;;;;;;;0.80;0.80;;;6.00;81.20;;;;;;4956272;28;20456;-73
2022/04/01 12:03:29;;;;;;;0.80;0.60;;;6.10;81.10;;;;;;4955773;28;20455;-74
2022/04/01 12:08:41;;;;;;;0.80;0.60;;;6.20;80.70;;;;;;4957902;28;20478;-74
2022/04/01 12:08:44;;;;;;;0.80;0.70;;;6.30;80.70;;;;;;4955530;29;20510;-74
2022/04/01 12:11:11;;;;;;;0.80;0.60;;;6.40;80.50;;;;;;4955088;28;20451;-74
2022/04/01 12:13:48;;;;;;;0.80;0.63;;;6.30;79.60;;;;;;4954807;28;20606;-73
2022/04/01 12:16:18;;;;;;;0.90;0.70;;;6.30;80.20;;;;;;4955252;28;20436;-74
2022/04/01 12:18:46;;;;;;;0.90;0.60;;;6.30;80.40;;;;;;4955224;28;20486;-74
2022/04/01 12:21:16;;;;;;;1.20;0.80;;;6.30;80.30;;;;;;4955037;28;20501;-74
2022/04/01 12:23:45;;;;;;;0.90;0.70;;;6.30;80.40;;;;;;4955079;28;20479;-74
2022/04/01 12:26:12;;;;;;;0.77;0.60;;;6.30;79.80;;;;;;4954953;28;20447;-74
2022/04/01 12:28:42;;;;;;;0.80;0.60;;;6.20;80.20;;;;;;4955233;28;20501;-74
2022/04/01 12:31:19;;;;;;;0.80;0.60;;;6.20;80.10;;;;;;4954977;28;20541;-75
2022/04/01 12:33:48;;;;;;;0.80;0.70;;;6.30;80.10;;;;;;4955412;28;20566;-74
2022/04/01 12:36:18;;;;;;;0.80;0.60;;;6.10;80.60;;;;;;4954951;28;20546;-74
2022/04/01 12:39:01;;;;;;;0.80;0.60;;;6.20;80.60;;;;;;4954839;28;20490;-74
2022/04/01 12:41:28;;;;;;;0.80;0.60;;;6.10;80.10;;;;;;4955132;28;20439;-74
2022/04/01 12:43:56;;;;;;;0.80;0.70;;;6.30;80.10;;;;;;4955155;28;20473;-75
2022/04/01 12:46:30;;;;;;;0.80;0.60;;;6.20;79.70;;;;;;4955030;29;20966;-74
2022/04/01 12:48:59;;;;;;;0.80;0.70;;;6.00;79.60;;;;;;4955134;28;20462;-73
2022/04/01 12:51:27;;;;;;;0.80;0.70;;;6.00;80.20;;;;;;4955097;28;20451;-74
2022/04/01 12:53:55;;;;;;;0.80;0.70;;;6.00;80.70;;;;;;4954802;28;20522;-73
2022/04/01 12:56:24;;;;;;;0.90;0.80;;;5.90;80.50;;;;;;4955788;28;20507;-75
2022/04/01 12:58:52;;;;;;;0.80;0.70;;;6.00;81.10;;;;;;4955403;28;20561;-74
2022/04/01 13:01:26;;;;;;;1.07;0.80;;;6.00;80.70;;;;;;4955107;28;20450;-74
2022/04/01 13:03:55;;;;;;;0.83;0.83;;;6.00;80.80;;;;;;4954810;28;20603;-75
2022/04/01 13:06:25;;;;;;;0.80;0.70;;;6.00;80.70;;;;;;4954764;28;20474;-75
2022/04/01 13:09:04;;;;;;;0.90;0.90;;;6.00;80.90;;;;;;4954675;28;20447;-74
2022/04/01 13:11:39;;;;;;;0.80;0.70;;;6.00;80.60;;;;;;4954276;28;20888;-74
2022/04/01 13:14:07;;;;;;;0.80;0.80;;;6.00;81.20;;;;;;4954916;28;20510;-75
2022/04/01 13:16:40;;;;;;;0.80;0.80;;;5.90;80.80;;;;;;4958150;28;20486;-74
2022/04/01 13:19:23;;;;;;;0.90;0.90;;;5.90;80.90;;;;;;4958188;28;20467;-74
2022/04/01 13:21:50;;;;;;;0.80;0.70;;;5.90;81.00;;;;;;4958047;28;20435;-75
2022/04/01 13:24:20;;;;;;;0.80;0.70;;;5.60;81.00;;;;;;4957709;28;20472;-74
2022/04/01 13:26:47;;;;;;;0.80;0.80;;;5.50;81.90;;;;;;4958457;28;20531;-74
2022/04/01 13:29:14;;;;;;;0.80;0.70;;;5.40;82.30;;;;;;4957765;28;20448;-75
2022/04/01 13:31:43;;;;;;;0.80;0.80;;;5.30;82.20;;;;;;4957773;28;20454;-75
2022/04/01 13:34:10;;;;;;;0.80;0.80;;;5.30;83.00;;;;;;4957683;28;20850;-74
2022/04/01 13:36:37;;;;;;;0.80;0.77;;;5.30;82.80;;;;;;4957766;28;20453;-74
2022/04/01 13:39:06;;;;;;;0.90;0.80;;;5.20;82.80;;;;;;4957595;28;20589;-74
2022/04/01 13:41:32;;;;;;;0.80;0.70;;;5.30;82.70;;;;;;4957505;28;20455;-74
2022/04/01 13:43:59;;;;;;;0.80;0.80;;;5.40;82.30;;;;;;4957784;28;20514;-74
2022/04/01 13:46:26;;;;;;;0.80;0.70;;;5.30;82.10;;;;;;4957589;28;20537;-75
2022/04/01 13:48:55;;;;;;;0.90;0.90;;;5.20;82.10;;;;;;4957581;28;20451;-74
2022/04/01 13:51:22;;;;;;;1.10;1.00;;;5.30;82.60;;;;;;4957675;28;20963;-74
2022/04/01 13:53:48;;;;;;;0.80;0.80;;;5.20;81.60;;;;;;4957889;28;20529;-75
2022/04/01 13:56:15;;;;;;;0.80;0.80;;;5.30;81.90;;;;;;4957887;28;20455;-75
2022/04/01 13:58:42;;;;;;;0.90;0.90;;;5.40;81.50;;;;;;4957392;28;20487;-74
2022/04/01 14:01:11;;;;;;;1.30;1.10;;;5.40;81.40;;;;;;4957564;28;20447;-73
2022/04/01 14:03:38;;;;;;;1.43;1.33;;;5.50;81.50;;;;;;4957233;28;20479;-74
2022/04/01 14:06:07;;;;;;;0.90;0.90;;;5.50;81.30;;;;;;4957147;28;20825;-74
2022/04/01 14:08:35;;;;;;;0.80;0.80;;;5.50;80.60;;;;;;4957162;28;20454;-74
2022/04/01 14:11:02;;;;;;;1.00;1.00;;;5.50;81.10;;;;;;4957303;28;20443;-74
2022/04/01 14:13:29;;;;;;;0.80;0.70;;;5.60;81.10;;;;;;4957390;28;20810;-74
2022/04/01 14:15:56;;;;;;;0.80;0.77;;;5.70;81.00;;;;;;4956952;28;20463;-74
2022/04/01 14:18:22;;;;;;;0.90;0.90;;;5.80;80.50;;;;;;4956831;28;21002;-75
2022/04/01 14:20:50;;;;;;;0.80;0.80;;;5.70;80.10;;;;;;4958250;28;20455;-75
2022/04/01 14:23:18;;;;;;;0.80;0.80;;;5.40;80.50;;;;;;4957196;28;20454;-75
2022/04/01 14:25:47;;;;;;;0.80;0.70;;;5.30;80.90;;;;;;4956144;28;20483;-75
2022/04/01 14:28:14;;;;;;;1.20;1.10;;;5.30;81.30;;;;;;4956869;28;20451;-75
2022/04/01 14:30:41;;;;;;;1.00;0.90;;;5.40;81.20;;;;;;4956803;28;20447;-75
2022/04/01 14:33:08;;;;;;;0.80;0.80;;;5.20;80.70;;;;;;4956769;28;20451;-75
2022/04/01 14:35:35;;;;;;;1.00;0.90;;;5.20;81.50;;;;;;4956653;28;20474;-75
2022/04/01 14:38:03;;;;;;;0.80;0.80;;;5.10;81.10;;;;;;4956642;28;20490;-75
2022/04/01 14:40:32;;;;;;;1.00;0.90;;;5.10;81.50;;;;;;4956620;28;20828;-75
2022/04/01 14:43:00;;;;;;;0.90;0.90;;;5.20;81.50;;;;;;4956878;28;20533;-75
2022/04/01 14:45:26;;;;;;;0.83;0.83;;;5.20;81.40;;;;;;4956455;28;21006;-75
2022/04/01 14:47:54;;;;;;;0.80;0.80;;;4.90;81.40;;;;;;4956212;28;21025;-75
2022/04/01 14:50:21;;;;;;;1.10;1.00;;;5.00;82.20;;;;;;4956416;28;20447;-75
2022/04/01 14:52:48;;;;;;;0.90;0.80;;;5.20;81.90;;;;;;4956277;28;20462;-75
2022/04/01 14:55:14;;;;;;;0.97;0.90;;;5.20;81.70;;;;;;4956240;28;20541;-75
2022/04/01 14:57:43;;;;;;;0.80;0.80;;;5.30;81.30;;;;;;4956195;28;20534;-74
2022/04/01 15:00:12;;;;;;;0.90;0.90;;;5.20;80.80;;;;;;4956363;28;20486;-75
2022/04/01 15:02:39;;;;;;;1.00;0.93;;;5.30;81.20;;;;;;4956239;28;20454;-75
2022/04/01 15:05:13;;;;;;;0.90;0.90;;;5.30;81.50;;;;;;4956183;28;20821;-75
2022/04/01 15:07:40;;;;;;;1.00;1.00;;;5.20;80.90;;;;;;4956268;28;20538;-75
2022/04/01 15:10:08;;;;;;;1.20;1.10;;;5.10;80.90;;;;;;4956315;28;20457;-76
2022/04/01 15:12:35;;;;;;;1.30;1.20;;;5.00;81.20;;;;;;4956101;28;20534;-74
2022/04/01 15:15:04;;;;;;;1.40;1.10;;;5.00;81.20;;;;;;5051848;23;20589;-72
2022/04/01 15:17:33;;;;;;;1.20;1.10;;;4.90;81.60;;;;;;4955045;28;20939;-73
2022/04/01 15:20:00;;;;;;;0.90;0.90;;;5.00;81.50;;;;;;4955458;28;20522;-72
2022/04/01 15:22:27;;;;;;;1.00;1.00;;;5.00;81.30;;;;;;4956072;28;20451;-71
2022/04/01 15:24:54;;;;;;;0.90;0.90;;;5.10;81.40;;;;;;4955547;28;20824;-72
2022/04/01 15:27:20;;;;;;;1.07;1.03;;;5.00;81.30;;;;;;4954734;28;20494;-72
2022/04/01 15:29:47;;;;;;;1.20;1.10;;;5.00;80.90;;;;;;4955253;28;20451;-71
2022/04/01 15:32:15;;;;;;;1.27;1.17;;;4.60;80.60;;;;;;4955205;28;20447;-70
2022/04/01 15:34:42;;;;;;;1.20;1.10;;;4.50;81.70;;;;;;4954780;28;20467;-71
2022/04/01 15:37:17;;;;;;;1.40;1.27;;;4.60;81.90;;;;;;4954358;28;20440;-70
2022/04/01 15:39:48;;;;;;;1.20;1.10;;;4.50;81.70;;;;;;4954967;28;20529;-71
2022/04/01 15:42:16;;;;;;;1.30;1.20;;;4.60;82.00;;;;;;4954824;28;20506;-71
2022/04/01 15:44:44;;;;;;;1.40;1.30;;;4.60;80.70;;;;;;4954707;28;20554;-71
2022/04/01 15:47:13;;;;;;;1.33;1.23;;;4.50;81.80;;;;;;4954904;28;20874;-70
2022/04/01 15:49:42;;;;;;;1.10;1.03;;;4.60;81.70;;;;;;4954771;28;20443;-70
2022/04/01 15:52:11;;;;;;;1.30;1.20;;;4.70;81.00;;;;;;4955101;28;20463;-70
2022/04/01 15:54:37;;;;;;;1.30;1.20;;;4.80;81.00;;;;;;4954536;28;20966;-71
2022/04/01 15:57:05;;;;;;;1.27;1.17;;;4.60;81.30;;;;;;4954619;28;20502;-69
2022/04/01 15:59:34;;;;;;;1.47;1.37;;;4.40;81.10;;;;;;4954199;28;20486;-69
2022/04/01 16:02:04;;;;;;;1.20;1.10;;;4.40;82.20;;;;;;4954636;28;20455;-70
2022/04/01 16:04:36;;;;;;;1.20;1.10;;;4.50;81.90;;;;;;4955392;28;20474;-71
2022/04/01 16:07:07;;;;;;;1.30;1.20;;;4.60;81.50;;;;;;4954856;28;20438;-70
2022/04/01 16:09:35;;;;;;;1.40;1.30;;;4.60;81.30;;;;;;4954731;28;20431;-71
2022/04/01 16:12:03;;;;;;;1.20;1.10;;;4.60;81.60;;;;;;4954549;28;20519;-70
2022/04/01 16:14:32;;;;;;;1.40;1.30;;;4.60;81.40;;;;;;4954510;28;20470;-70
2022/04/01 16:16:59;;;;;;;1.20;1.10;;;4.70;81.20;;;;;;4954186;28;20884;-70
2022/04/01 16:19:27;;;;;;;1.30;1.20;;;4.70;81.30;;;;;;4954412;28;20482;-71